LFOHLFOP

Guest
Details From LFOH - Le Havre-Octeville
To LFOP - Rouen Vallee de la Seine
Flight Number -
Tags decoded
Created
Modified
Stats Distance 57 nm / 106 km
Max Altitude 0 ft / 0 m
Waypoints 4
Social Downloads 4
Likes 0
Share VATSIM

Download

Looking for another format? Having issues loading an existing format? Contact us
Advertisement - Login to hide

Notes

Requested: LFOH OLMES BETOV ERESI ROU LFOP Unmatched points: BETOV ERESI

Route

LFOH OLMES ROU LFOP

ID Type Via Altitude Latitude Longitude Leg Dist Tot Dist Heading (true) Name
O LFOH APT - 0 ft / 0 m 49.53408˚ 0.08846˚ - 0 nm - Le Havre-Octeville
OLMES FIX - 0 ft / 0 m 49.63139˚ 1.00278˚ 36 nm 36 nm 80° / 81° -
ROU VOR - 0 ft / 0 m 49.46564˚ 1.28064˚ 14 nm 50 nm 132° / 133° ROUEN VALLEE DE SEINE VOR
O LFOP APT - 0 ft / 0 m 49.38521˚ 1.17619˚ 6 nm 57 nm 220° / 220° Rouen Vallee de la Seine

Altitude Profile

Advertisement - Login to hide

LFOH

Details ICAO LFOH (LEH)
Name Le Havre-Octeville
Region France
Timezone Europe/Paris (UTC+1.0)
Stats Elevation 311 ft / 95 m (AMSL)
Location 49.534079° 0.088457°
Runways 1
Magnetic Variation 0.178° W

METAR

LFOH 170430Z AUTO 33007KT 9999 BKN021 BKN026 BKN031 06/02 Q1024 NOSIG

Decode

TAF

TAF AMD TAF AMD LFOH 161900Z 1619/1706 CNL

Decode

Departure Runways

ID Width Length Bearing (true) Bearing (mag) Surface Threshold Offset Overrun Length
04 131 ft / 40 m 7,553 ft / 2,302 m 43.07° 43.25° Asphalt 0 ft / 0 m 0 ft / 0 m
22 131 ft / 40 m 7,553 ft / 2,302 m 223.08° 223.26° Asphalt 0 ft / 0 m 0 ft / 0 m

LFOP

Details ICAO LFOP (URO)
Name Rouen Vallee de la Seine
Region France
Timezone Europe/Paris (UTC+1.0)
Stats Elevation 512 ft / 156 m (AMSL)
Location 49.385211° 1.176192°
Runways 1
Magnetic Variation 0.185° E

METAR

LFOP 170430Z AUTO 27003KT 5000 BR NSC 00/00 Q1023

Decode

TAF

TAF LFOP 162100Z 1621/1718 CNL

Decode

Destination Runways

ID Width Length Bearing (true) Bearing (mag) Surface Threshold Offset Overrun Length
04 148 ft / 45 m 5,577 ft / 1,700 m 41.28° 41.10° Asphalt 0 ft / 0 m 0 ft / 0 m
22 148 ft / 45 m 5,577 ft / 1,700 m 221.29° 221.11° Asphalt 0 ft / 0 m 0 ft / 0 m

Approach Navaids

Runway Type Ident Frequency Range Bearing (true) Bearing (mag) Slope Elevation
22 Localiser RN 110.50 MHz 18 nm / 33 km 221.27° 221.09° - 512 ft / 156 m (AMSL)
22 Glidescope RN 110.50 MHz 10 nm / 19 km 221.28° 221.10° 3.00° 512 ft / 156 m (AMSL)
22 DME RN 110.50 MHz 18 nm / 33 km - - - 571 ft / 174 m (AMSL)

Popular Alternatives